createdAt,value
2018-01-27T00:00:45.720Z,95.74
2018-01-27T00:02:41.638Z,96.41
2018-01-27T00:03:41.638Z,96.12
2018-01-27T00:05:38.095Z,95.84
2018-01-27T00:06:38.091Z,95.93
2018-01-27T00:08:31.997Z,95.79
2018-01-27T00:09:33.463Z,95.98
2018-01-27T00:11:28.963Z,96.08
2018-01-27T00:12:28.011Z,96.26
2018-01-27T00:14:24.496Z,96.36
2018-01-27T00:15:23.945Z,96.26
2018-01-27T00:17:20.923Z,96.26
2018-01-27T00:18:20.889Z,96.36
2018-01-27T00:20:14.824Z,96.45
2018-01-27T00:21:14.297Z,96.08
2018-01-27T00:23:08.733Z,96.17
2018-01-27T00:24:09.261Z,95.79
2018-01-27T00:26:04.664Z,95.22
2018-01-27T00:27:04.641Z,95.12
2018-01-27T00:29:00.601Z,95.03
2018-01-27T00:30:00.594Z,94.27
2018-01-27T00:31:57.532Z,94.37
2018-01-27T00:32:56.493Z,94.08
2018-01-27T00:34:52.468Z,93.99
2018-01-27T00:35:52.418Z,93.51
2018-01-27T00:37:48.860Z,93.04
2018-01-27T00:38:48.337Z,92.94
2018-01-27T00:40:44.306Z,92.94
2018-01-27T00:41:44.787Z,93.04
2018-01-27T00:43:40.195Z,92.94
2018-01-27T00:44:40.194Z,92.66
2018-01-27T00:46:36.161Z,92.04
2018-01-27T00:47:36.160Z,92.04
2018-01-27T00:49:32.084Z,91.85
2018-01-27T00:50:32.576Z,91.94
2018-01-27T00:52:28.521Z,91.75
2018-01-27T00:53:27.964Z,91.75
2018-01-27T00:55:24.930Z,91.66
2018-01-27T00:56:23.897Z,91.66
2018-01-27T00:58:19.856Z,91.66
2018-01-27T00:59:19.849Z,91.47
2018-01-27T01:01:15.773Z,91.56
2018-01-27T01:02:15.758Z,91.75
2018-01-27T01:04:11.728Z,91.75
2018-01-27T01:05:11.696Z,91.47
2018-01-27T01:07:08.175Z,91.85
2018-01-27T01:08:07.616Z,91.66
2018-01-27T01:10:04.570Z,90.90
2018-01-27T01:11:03.570Z,91.19
2018-01-27T01:13:00.046Z,90.80
2018-01-27T01:13:59.523Z,91.38
2018-01-27T01:15:56.485Z,91.19
2018-01-27T01:16:55.520Z,91.09
2018-01-27T01:18:51.974Z,91.28
2018-01-27T01:19:51.969Z,92.13
2018-01-27T01:21:45.913Z,92.04
2018-01-27T01:22:46.418Z,92.13
2018-01-27T01:24:41.822Z,92.23
2018-01-27T01:25:41.807Z,92.04
2018-01-27T01:27:37.791Z,91.75
2018-01-27T01:28:37.738Z,91.56
2018-01-27T01:30:33.702Z,91.56
2018-01-27T01:31:33.710Z,91.85
2018-01-27T01:33:33.145Z,91.75
2018-01-27T01:34:31.630Z,91.47
2018-01-27T01:36:27.604Z,91.47
2018-01-27T01:37:27.566Z,92.04
2018-01-27T01:39:24.019Z,92.23
2018-01-27T01:40:24.021Z,92.13
2018-01-27T01:42:17.917Z,92.04
2018-01-27T01:43:18.473Z,92.51
2018-01-27T01:45:13.890Z,92.80
2018-01-27T01:46:13.845Z,92.90
2018-01-27T01:48:08.791Z,92.90
2018-01-27T01:49:08.298Z,93.08
2018-01-27T01:51:04.210Z,92.90
2018-01-27T01:52:04.204Z,92.80
2018-01-27T01:53:59.169Z,92.71
2018-01-27T01:54:58.667Z,92.99
2018-01-27T01:56:54.632Z,92.90
2018-01-27T01:57:54.617Z,92.71
2018-01-27T01:59:50.573Z,93.84
2018-01-27T02:00:50.580Z,93.70
2018-01-27T02:02:47.051Z,93.51
2018-01-27T02:03:47.030Z,93.75
2018-01-27T02:05:42.457Z,93.32
2018-01-27T02:06:42.430Z,93.80
2018-01-27T02:08:36.382Z,93.99
2018-01-27T02:09:35.889Z,93.37
2018-01-27T02:11:31.798Z,93.65
2018-01-27T02:12:31.808Z,93.32
2018-01-27T02:14:27.770Z,93.65
2018-01-27T02:15:29.260Z,93.60
2018-01-27T02:17:23.671Z,93.65
2018-01-27T02:18:23.656Z,93.65
2018-01-27T02:20:19.607Z,93.80
2018-01-27T02:21:19.605Z,94.03
2018-01-27T02:23:16.057Z,93.89
2018-01-27T02:24:15.529Z,93.70
2018-01-27T02:26:11.458Z,93.89
2018-01-27T02:27:11.461Z,94.13
2018-01-27T02:29:07.922Z,94.18
2018-01-27T02:30:07.420Z,94.08
2018-01-27T02:32:03.859Z,93.89
2018-01-27T02:33:03.317Z,94.08
2018-01-27T02:34:59.763Z,94.27
2018-01-27T02:35:59.247Z,94.56
2018-01-27T02:37:55.177Z,94.27
2018-01-27T02:38:55.177Z,94.18
2018-01-27T02:40:51.096Z,94.46
2018-01-27T02:41:51.105Z,94.32
2018-01-27T02:43:46.779Z,94.37
2018-01-27T02:44:46.736Z,94.37
2018-01-27T02:46:43.197Z,94.27
2018-01-27T02:47:43.198Z,94.46
2018-01-27T02:49:39.599Z,94.13
2018-01-27T02:50:38.595Z,94.03
2018-01-27T02:52:34.569Z,94.23
2018-01-27T02:53:35.040Z,94.13
2018-01-27T02:55:30.996Z,93.56
2018-01-27T02:56:30.484Z,93.65
2018-01-27T02:58:26.446Z,92.80
2018-01-27T02:59:26.422Z,93.18
2018-01-27T03:01:23.355Z,93.56
2018-01-27T03:02:22.336Z,93.84
2018-01-27T03:04:20.302Z,93.18
2018-01-27T03:05:18.271Z,93.46
2018-01-27T03:07:14.725Z,93.18
2018-01-27T03:08:14.207Z,92.90
2018-01-27T03:10:10.196Z,93.37
2018-01-27T03:11:10.654Z,93.27
2018-01-27T03:13:04.621Z,92.99
2018-01-27T03:14:05.103Z,93.37
2018-01-27T03:15:59.027Z,93.94
2018-01-27T03:16:59.531Z,93.56
2018-01-27T03:18:54.933Z,93.75
2018-01-27T03:19:54.919Z,93.75
2018-01-27T06:00:31.486Z,95.12
2018-01-27T06:01:30.756Z,95.31
2018-01-27T06:03:26.705Z,95.60
2018-01-27T06:04:26.701Z,95.51
2018-01-27T06:06:22.642Z,96.17
2018-01-27T06:07:24.155Z,95.98
2018-01-27T06:09:18.560Z,96.17
2018-01-27T06:10:18.569Z,96.17
2018-01-27T06:12:15.022Z,96.74
2018-01-27T06:13:14.478Z,96.50
2018-01-27T06:15:10.409Z,96.59
2018-01-27T06:16:10.411Z,96.78
2018-01-27T06:18:06.912Z,96.88
2018-01-27T06:19:06.351Z,96.88
2018-01-27T06:21:02.310Z,97.07
2018-01-27T06:22:02.273Z,97.36
2018-01-27T06:23:56.737Z,98.11
2018-01-27T06:24:56.699Z,97.64
2018-01-27T06:26:53.143Z,97.92
2018-01-27T06:27:52.635Z,98.02
2018-01-27T06:29:48.588Z,97.55
2018-01-27T06:30:48.563Z,97.55
2018-01-27T06:32:44.504Z,97.74
2018-01-27T06:33:44.508Z,97.64
2018-01-27T06:35:40.924Z,97.40
2018-01-27T06:36:40.435Z,97.88
2018-01-27T06:38:36.339Z,98.54
2018-01-27T06:39:36.354Z,98.25
2018-01-27T06:41:35.278Z,97.97
2018-01-27T06:42:34.377Z,98.16
2018-01-27T06:44:30.328Z,98.16
2018-01-27T06:45:30.314Z,98.44
2018-01-27T06:47:26.266Z,98.35
2018-01-27T06:48:26.221Z,98.54
2018-01-27T06:50:20.694Z,98.25
2018-01-27T06:51:20.650Z,98.44
2018-01-27T06:53:16.627Z,98.54
2018-01-27T06:54:17.133Z,98.63
2018-01-27T06:56:12.537Z,98.35
2018-01-27T06:57:12.530Z,98.25
2018-01-27T06:59:08.978Z,99.06
2018-01-27T07:00:08.979Z,98.49
2018-01-27T07:02:04.363Z,98.59
2018-01-27T07:03:04.899Z,98.68
2018-01-27T07:05:00.828Z,98.87
2018-01-27T07:06:00.827Z,98.68
2018-01-27T07:07:56.297Z,98.59
2018-01-27T07:08:56.201Z,98.40
2018-01-27T07:10:52.165Z,98.30
2018-01-27T07:11:52.149Z,98.49
2018-01-27T07:13:48.089Z,98.49
2018-01-27T07:14:48.085Z,98.49
2018-01-27T07:16:44.546Z,98.68
2018-01-27T07:17:43.995Z,98.68
2018-01-27T07:19:39.947Z,98.49
2018-01-27T07:20:40.450Z,98.30
2018-01-27T07:22:35.877Z,97.55
2018-01-27T07:23:35.861Z,97.83
2018-01-27T07:25:32.803Z,97.69
2018-01-27T07:26:31.808Z,97.36
2018-01-27T07:28:27.748Z,97.02
2018-01-27T07:29:28.748Z,97.31
2018-01-27T07:31:23.677Z,97.02
2018-01-27T07:32:24.622Z,96.64
2018-01-27T07:34:19.601Z,96.74
2018-01-27T07:35:19.617Z,96.55
2018-01-27T07:37:16.074Z,96.93
2018-01-27T07:38:15.556Z,96.26
2018-01-27T07:40:12.006Z,95.79
2018-01-27T07:41:11.477Z,96.26
2018-01-27T07:43:06.420Z,96.45
2018-01-27T07:44:05.905Z,95.41
2018-01-27T07:46:03.341Z,95.89
2018-01-27T07:47:01.831Z,95.89
2018-01-27T07:48:58.343Z,95.51
2018-01-27T07:49:57.747Z,95.60
2018-01-27T07:51:52.171Z,95.60
2018-01-27T07:52:52.166Z,95.51
2018-01-27T07:54:48.094Z,96.36
2018-01-27T07:55:48.090Z,95.70
2018-01-27T07:57:44.030Z,95.89
2018-01-27T07:58:44.534Z,95.22
2018-01-27T08:00:39.985Z,95.22
2018-01-27T08:01:39.994Z,95.22
2018-01-27T08:03:36.442Z,95.41
2018-01-27T08:04:36.080Z,96.08
2018-01-27T08:06:32.045Z,95.41
2018-01-27T08:07:32.558Z,95.41
2018-01-27T08:09:27.933Z,94.27
2018-01-27T08:10:27.984Z,94.37
2018-01-27T08:12:24.387Z,93.89
2018-01-27T08:13:23.865Z,94.27
2018-01-27T08:15:20.324Z,94.13
2018-01-27T08:16:20.321Z,94.13
2018-01-27T08:18:15.758Z,94.08
2018-01-27T08:19:15.746Z,94.18
2018-01-27T08:21:12.205Z,94.56
2018-01-27T08:22:12.197Z,94.18
2018-01-27T08:24:07.558Z,94.70
2018-01-27T08:25:06.113Z,94.51
2018-01-27T08:27:02.778Z,94.03
2018-01-27T08:28:02.939Z,93.94
2018-01-27T08:30:10.031Z,94.13
2018-01-27T08:31:09.528Z,93.84
2018-01-27T08:33:04.789Z,94.03
2018-01-27T08:34:04.786Z,93.65
2018-01-27T08:35:59.207Z,93.65
2018-01-27T08:36:59.196Z,92.80
2018-01-27T08:38:57.295Z,92.80
2018-01-27T08:39:58.156Z,92.99
2018-01-27T08:41:53.158Z,92.90
2018-01-27T08:42:53.705Z,93.18
2018-01-27T08:44:49.093Z,93.18
2018-01-27T08:45:49.087Z,93.56
2018-01-27T08:47:46.538Z,93.27
2018-01-27T08:48:45.539Z,93.18
2018-01-27T08:50:41.467Z,93.75
2018-01-27T08:51:41.468Z,93.56
2018-01-27T08:53:37.890Z,93.84
2018-01-27T08:54:36.885Z,93.75
2018-01-27T08:56:31.325Z,94.13
2018-01-27T08:57:31.830Z,94.03
2018-01-27T08:59:25.766Z,94.13
2018-01-27T09:00:24.827Z,93.84
2018-01-27T09:02:19.758Z,93.84
2018-01-27T09:03:19.173Z,93.84
2018-01-27T09:05:15.138Z,93.94
2018-01-27T09:06:15.126Z,93.75
2018-01-27T09:08:11.046Z,93.94
2018-01-27T09:09:11.045Z,94.13
2018-01-27T09:11:07.993Z,93.46
2018-01-27T09:12:06.985Z,93.46
2018-01-27T09:14:03.947Z,93.94
2018-01-27T09:15:02.922Z,93.65
2018-01-27T09:16:59.873Z,93.18
2018-01-27T09:17:58.862Z,92.80
2018-01-27T09:19:54.831Z,92.71
2018-01-27T09:20:54.797Z,92.23
2018-01-27T09:22:50.764Z,91.66
2018-01-27T09:23:50.753Z,90.99
2018-01-27T09:25:59.601Z,90.61
2018-01-27T09:26:59.581Z,90.71
2018-01-27T09:28:55.518Z,90.42
2018-01-27T09:29:55.510Z,89.67
2018-01-27T09:31:51.420Z,90.05
2018-01-27T09:32:51.418Z,90.05
2018-01-27T09:34:48.874Z,90.05
2018-01-27T09:35:48.882Z,90.52
2018-01-27T09:37:41.827Z,90.05
2018-01-27T09:38:41.788Z,90.14
2018-01-27T09:40:38.255Z,89.80
2018-01-27T09:41:37.739Z,89.61
2018-01-27T09:43:34.202Z,90.19
2018-01-27T09:44:34.204Z,90.37
2018-01-27T09:46:30.109Z,90.28
2018-01-27T09:47:29.605Z,90.37
2018-01-27T09:49:28.976Z,90.75
2018-01-27T09:50:24.036Z,90.47
2018-01-27T09:52:20.006Z,90.37
2018-01-27T09:53:19.952Z,90.37
2018-01-27T09:55:18.442Z,90.52
2018-01-27T09:56:17.897Z,90.05
2018-01-27T09:58:15.835Z,90.66
2018-01-27T09:59:15.846Z,90.37
2018-01-27T10:01:11.803Z,90.19
2018-01-27T10:02:11.782Z,90.28
2018-01-27T10:04:07.772Z,90.37
2018-01-27T10:05:08.240Z,90.28
2018-01-27T10:07:03.712Z,89.80
2018-01-27T10:08:04.253Z,89.80
2018-01-27T10:10:01.666Z,88.85
2018-01-27T10:11:01.599Z,88.85
2018-01-27T10:12:58.051Z,88.95
2018-01-27T10:13:57.539Z,89.04
2018-01-27T10:15:54.480Z,89.23
2018-01-27T10:16:53.461Z,88.85
2018-01-27T10:18:49.382Z,88.09
2018-01-27T10:19:49.402Z,88.57
2018-01-27T10:21:47.360Z,88.38
2018-01-27T10:22:47.838Z,88.38
2018-01-27T10:24:45.270Z,87.43
2018-01-27T10:25:45.229Z,87.14
2018-01-27T10:27:43.696Z,86.76
2018-01-27T10:28:43.149Z,86.00
2018-01-27T10:30:42.123Z,85.15
2018-01-27T10:31:41.197Z,85.57
2018-01-27T10:33:39.159Z,85.19
2018-01-27T10:34:39.661Z,84.43
2018-01-27T10:36:37.590Z,84.72
2018-01-27T10:37:38.573Z,83.86
2018-01-27T10:39:35.000Z,83.58
2018-01-27T10:40:34.992Z,83.58
2018-01-27T10:42:30.997Z,83.67
2018-01-27T10:43:30.901Z,83.58
2018-01-27T10:45:30.380Z,83.29
2018-01-27T10:46:28.964Z,83.58
2018-01-27T10:48:26.927Z,82.91
2018-01-27T10:49:26.876Z,83.29
2018-01-27T10:51:25.337Z,83.48
2018-01-27T10:52:24.847Z,83.48
2018-01-27T10:54:22.948Z,82.91
2018-01-27T10:55:23.258Z,83.29
2018-01-27T10:57:21.189Z,83.10
2018-01-27T10:58:21.183Z,83.19
2018-01-27T11:00:19.676Z,82.53
2018-01-27T11:01:19.118Z,82.71
2018-01-27T11:03:17.632Z,82.24
2018-01-27T11:04:17.597Z,82.05
2018-01-27T11:06:14.705Z,82.05
2018-01-27T11:07:14.712Z,81.96
2018-01-27T11:09:12.643Z,81.81
2018-01-27T11:10:12.642Z,82.00
2018-01-27T11:12:10.714Z,82.00
2018-01-27T11:13:11.588Z,82.00
2018-01-27T11:15:09.139Z,81.81
2018-01-27T11:16:09.607Z,81.62
2018-01-27T11:18:06.718Z,81.43
2018-01-27T11:19:07.701Z,81.05
2018-01-27T11:21:04.661Z,79.72
2018-01-27T11:22:04.630Z,80.10
2018-01-27T11:24:03.111Z,79.43
2018-01-27T11:25:02.620Z,79.62
2018-01-27T11:26:58.548Z,78.61
2018-01-27T11:27:59.028Z,77.72
2018-01-27T11:29:57.035Z,77.47
2018-01-27T11:30:56.977Z,76.90
2018-01-27T11:32:54.909Z,77.28
2018-01-27T11:33:54.388Z,77.28
2018-01-27T11:35:53.857Z,76.33
2018-01-27T11:36:54.347Z,76.23
2018-01-27T11:38:50.466Z,76.29
2018-01-27T11:39:50.472Z,76.86
2018-01-27T11:41:50.925Z,76.76
2018-01-27T11:42:50.891Z,76.96
2018-01-27T11:44:49.356Z,76.86
2018-01-27T11:45:48.846Z,76.29
2018-01-27T11:47:47.784Z,77.24
2018-01-27T11:48:47.286Z,76.76
2018-01-27T11:50:45.727Z,77.66
2018-01-27T11:51:45.224Z,76.81
2018-01-27T11:53:43.686Z,76.61
2018-01-27T11:54:43.194Z,76.33
2018-01-27T11:56:40.668Z,76.23
2018-01-27T11:57:41.618Z,75.76
2018-01-27T11:59:38.601Z,74.80
2018-01-27T12:00:38.588Z,74.80
2018-01-27T12:02:37.585Z,73.95
2018-01-27T12:03:37.036Z,73.28
2018-01-27T12:05:35.971Z,73.57
2018-01-27T12:06:34.580Z,73.28
2018-01-27T12:08:31.023Z,73.28
2018-01-27T12:09:31.049Z,73.47
2018-01-27T12:11:26.944Z,73.00
2018-01-27T12:12:26.437Z,73.28
2018-01-27T12:14:23.385Z,73.57
2018-01-27T12:15:22.372Z,73.38
2018-01-27T12:17:18.344Z,73.57
2018-01-27T12:18:18.875Z,73.57
2018-01-27T12:20:17.272Z,73.28
2018-01-27T12:21:16.251Z,73.85
2018-01-27T12:23:14.227Z,73.66
2018-01-27T12:24:14.214Z,73.66
2018-01-27T12:26:12.141Z,73.19
2018-01-27T12:27:12.119Z,73.19
2018-01-27T12:29:09.068Z,72.71
2018-01-27T12:30:08.586Z,73.28
2018-01-27T12:32:07.555Z,72.71
2018-01-27T12:33:07.029Z,72.81
2018-01-27T12:35:04.058Z,73.19
2018-01-27T12:36:04.572Z,73.19
2018-01-27T12:38:03.464Z,72.81
2018-01-27T12:39:02.009Z,72.62
2018-01-27T12:40:58.977Z,71.95
2018-01-27T12:41:58.471Z,72.52
2018-01-27T12:43:55.366Z,71.95
2018-01-27T12:44:53.856Z,72.62
2018-01-27T12:46:54.317Z,71.86
2018-01-27T12:47:53.817Z,72.14
2018-01-27T12:49:51.371Z,71.57
2018-01-27T12:50:50.881Z,71.76
2018-01-27T12:52:47.838Z,70.90
2018-01-27T12:53:46.856Z,71.00
2018-01-27T12:55:45.787Z,71.19
2018-01-27T12:56:44.774Z,71.70
2018-01-27T12:58:44.215Z,71.76
2018-01-27T12:59:43.716Z,71.89
2018-01-27T13:01:41.757Z,71.32
2018-01-27T13:02:40.712Z,71.13
2018-01-27T13:04:39.677Z,71.70
2018-01-27T13:05:38.752Z,71.32
2018-01-27T13:07:39.217Z,70.27
2018-01-27T13:08:39.202Z,70.47
2018-01-27T13:10:38.573Z,70.08
2018-01-27T13:11:37.126Z,69.89
2018-01-27T13:13:36.596Z,69.99
2018-01-27T13:14:35.184Z,69.79
2018-01-27T13:16:34.147Z,69.99
2018-01-27T13:17:34.134Z,69.79
2018-01-27T13:19:31.183Z,69.51
2018-01-27T13:20:32.120Z,69.51
2018-01-27T13:22:27.262Z,69.32
2018-01-27T13:23:27.629Z,69.99
2018-01-27T13:25:25.025Z,70.27
2018-01-27T13:26:25.551Z,69.74
2018-01-27T13:28:25.033Z,68.12
2018-01-27T13:29:23.926Z,68.69
2018-01-27T13:31:19.043Z,68.21
2018-01-27T13:32:19.546Z,68.50
2018-01-27T13:34:14.965Z,68.18
2018-01-27T13:35:15.489Z,67.64
2018-01-27T13:37:09.410Z,65.61
2018-01-27T13:38:09.409Z,65.32
2018-01-27T13:40:05.799Z,65.80
2018-01-27T13:41:03.837Z,66.66
2018-01-27T13:42:59.793Z,67.89
2018-01-27T13:43:59.772Z,68.18
2018-01-27T13:45:55.716Z,68.94
2018-01-27T13:46:55.724Z,69.04
2018-01-27T13:48:50.168Z,68.18
2018-01-27T13:49:50.157Z,68.27
2018-01-27T13:51:46.142Z,65.80
2018-01-27T13:52:47.531Z,65.70
2018-01-27T13:54:39.535Z,66.85
2018-01-27T13:55:39.495Z,66.94
2018-01-27T13:57:32.932Z,66.56
2018-01-27T13:58:32.946Z,65.80
2018-01-27T14:00:28.894Z,66.37
2018-01-27T14:01:28.863Z,66.66
2018-01-27T14:03:24.811Z,66.08
2018-01-27T14:04:24.824Z,65.70
2018-01-27T14:06:21.287Z,66.85
2018-01-27T14:07:21.267Z,67.41
2018-01-27T14:09:16.701Z,67.22
2018-01-27T14:10:17.635Z,66.18
2018-01-27T14:12:13.162Z,65.61
2018-01-27T14:13:12.598Z,65.32
2018-01-27T14:15:08.562Z,65.23
2018-01-27T14:16:08.550Z,65.42
2018-01-27T14:18:04.527Z,65.89
2018-01-27T14:19:05.008Z,65.70
2018-01-27T14:21:00.432Z,65.23
2018-01-27T14:22:00.459Z,65.13
2018-01-27T14:23:56.390Z,65.13
2018-01-27T14:24:56.906Z,65.23
2018-01-27T14:26:52.323Z,64.94
2018-01-27T14:27:52.324Z,65.61
2018-01-27T14:29:48.247Z,65.42
2018-01-27T14:30:48.777Z,65.99
2018-01-27T14:32:44.199Z,65.70
2018-01-27T14:33:44.190Z,65.89
2018-01-27T14:35:42.619Z,65.80
2018-01-27T14:36:39.168Z,65.89
2018-01-27T14:38:41.345Z,66.66
2018-01-27T14:39:40.783Z,66.94
2018-01-27T14:41:46.586Z,67.41
2018-01-27T14:42:46.316Z,67.61
2018-01-27T14:44:49.193Z,67.99
2018-01-27T14:45:48.092Z,67.99
2018-01-27T14:47:51.121Z,66.94
2018-01-27T14:48:48.126Z,66.75
2018-01-27T14:51:08.544Z,67.47
2018-01-27T14:52:07.857Z,67.19
2018-01-27T14:54:10.280Z,67.76
2018-01-27T14:55:08.483Z,68.33
2018-01-27T14:57:11.748Z,70.24
2018-01-27T14:58:09.916Z,71.86
2018-01-27T15:00:15.924Z,74.14
2018-01-27T15:01:13.003Z,74.33
2018-01-27T15:03:13.613Z,75.19
2018-01-27T15:04:14.106Z,75.67
2018-01-27T15:07:21.531Z,76.04
2018-01-27T15:08:21.552Z,76.52
2018-01-27T15:10:22.469Z,76.52
2018-01-27T15:11:23.638Z,76.61
2018-01-27T15:13:23.265Z,76.33
2018-01-27T15:14:22.340Z,77.00
2018-01-27T15:16:26.309Z,77.28
2018-01-27T15:17:24.786Z,76.90
2018-01-27T15:19:24.337Z,77.24
2018-01-27T15:20:24.909Z,77.05
2018-01-27T15:22:22.817Z,77.24
2018-01-27T15:23:22.572Z,77.53
2018-01-27T15:25:19.536Z,78.00
2018-01-27T15:26:18.493Z,78.00
2018-01-27T15:28:14.444Z,77.72
2018-01-27T15:29:14.458Z,77.53
2018-01-27T15:31:10.353Z,78.67
2018-01-27T15:32:10.371Z,78.19
2018-01-27T15:34:06.831Z,78.77
2018-01-27T15:35:06.815Z,78.48
2018-01-27T15:37:05.277Z,79.05
2018-01-27T15:38:04.371Z,79.14
2018-01-27T15:40:02.309Z,79.52
2018-01-27T15:41:00.275Z,79.39
2018-01-27T15:42:54.776Z,79.33
2018-01-27T15:43:54.700Z,79.81
2018-01-27T15:45:49.148Z,80.05
2018-01-27T15:46:49.172Z,80.15
2018-01-27T15:48:44.620Z,80.15
2018-01-27T15:49:43.578Z,80.53
2018-01-27T15:51:40.042Z,81.01
2018-01-27T15:52:39.503Z,80.63
2018-01-27T15:54:36.493Z,81.20
2018-01-27T15:55:36.959Z,81.20
2018-01-27T15:57:34.912Z,81.38
2018-01-27T15:58:34.485Z,81.10
2018-01-27T16:00:30.425Z,81.67
2018-01-27T16:01:30.432Z,81.67
2018-01-27T16:03:23.855Z,81.38
2018-01-27T16:04:23.856Z,80.63
2018-01-27T16:06:21.328Z,80.44
2018-01-27T16:07:19.783Z,79.49
2018-01-27T16:09:16.244Z,79.77
2018-01-27T16:10:15.743Z,77.49
2018-01-27T16:12:11.673Z,74.44
2018-01-27T16:13:11.624Z,73.97
2018-01-27T16:15:08.089Z,73.49
2018-01-27T16:16:07.553Z,73.11
2018-01-27T16:18:03.022Z,72.45
2018-01-27T16:19:02.522Z,72.26
2018-01-27T16:20:56.948Z,72.92
2018-01-27T16:21:56.938Z,72.45
2018-01-27T16:23:53.365Z,72.55
2018-01-27T16:24:52.853Z,72.55
2018-01-27T16:26:48.808Z,72.55
2018-01-27T16:27:48.332Z,71.78
2018-01-27T16:29:44.239Z,72.07
2018-01-27T16:30:44.216Z,72.07
2018-01-27T16:32:40.167Z,71.59
2018-01-27T16:33:40.154Z,71.69
2018-01-27T16:35:36.074Z,71.97
2018-01-27T16:36:36.079Z,72.16
2018-01-27T16:38:32.039Z,71.78
2018-01-27T16:39:32.008Z,71.41
2018-01-27T16:41:28.462Z,71.88
2018-01-27T16:42:27.935Z,72.07
2018-01-27T16:44:23.859Z,71.66
2018-01-27T16:45:23.875Z,71.94
2018-01-27T16:47:19.809Z,71.94
2018-01-27T16:48:19.819Z,72.13
2018-01-27T16:50:18.182Z,72.13
2018-01-27T16:51:15.734Z,71.94
2018-01-27T16:53:12.195Z,72.89
2018-01-27T16:54:12.176Z,72.70
2018-01-27T16:56:08.124Z,72.70
2018-01-27T16:57:07.594Z,72.60
2018-01-27T16:59:03.575Z,72.41
2018-01-27T17:00:03.551Z,72.60
2018-01-27T17:01:59.467Z,72.79
2018-01-27T17:02:59.986Z,72.99
2018-01-27T17:04:55.408Z,72.89
2018-01-27T17:05:55.376Z,73.18
2018-01-27T17:07:52.322Z,73.27
2018-01-27T17:08:51.334Z,72.99
2018-01-27T17:10:47.841Z,73.36
2018-01-27T17:11:47.767Z,73.65
2018-01-27T17:13:43.185Z,73.18
2018-01-27T17:14:43.179Z,73.55
2018-01-27T17:16:40.648Z,73.74
2018-01-27T17:17:40.120Z,73.74
2018-01-27T17:19:36.575Z,74.31
2018-01-27T17:20:36.575Z,74.41
2018-01-27T17:22:31.950Z,74.79
2018-01-27T17:23:31.988Z,74.88
2018-01-27T17:25:27.892Z,75.45
2018-01-27T17:26:27.877Z,75.26
2018-01-27T17:28:24.356Z,75.36
2018-01-27T17:29:23.839Z,75.84
2018-01-27T17:31:20.297Z,76.31
2018-01-27T17:32:19.766Z,76.21
2018-01-27T17:34:16.215Z,76.69
2018-01-27T17:35:15.694Z,76.88
2018-01-27T17:37:13.147Z,77.26
2018-01-27T17:38:12.575Z,76.88
2018-01-27T17:40:08.569Z,76.84
2018-01-27T17:41:07.541Z,76.88
2018-01-27T17:43:03.984Z,77.41
2018-01-27T17:44:03.992Z,77.70
2018-01-27T17:45:59.429Z,77.60
2018-01-27T17:46:59.935Z,77.60
2018-01-27T17:48:57.447Z,78.27
2018-01-27T17:49:57.465Z,78.17
2018-01-27T17:51:54.388Z,78.45
2018-01-27T17:52:53.900Z,78.36
2018-01-27T17:54:51.849Z,78.64
2018-01-27T17:55:51.283Z,78.93
2018-01-27T17:57:45.723Z,78.83
2018-01-27T17:58:45.725Z,79.22
2018-01-27T18:00:41.683Z,78.93
2018-01-27T18:01:41.682Z,78.83
2018-01-27T18:03:39.368Z,78.93
2018-01-27T18:04:37.619Z,79.12
2018-01-27T18:06:46.737Z,79.60
2018-01-27T18:07:46.084Z,79.60
2018-01-27T18:09:44.025Z,79.41
2018-01-27T18:10:42.542Z,79.31
2018-01-27T18:12:36.555Z,79.22
2018-01-27T18:13:36.603Z,79.50
2018-01-27T18:15:32.569Z,79.41
2018-01-27T18:16:32.496Z,79.41
2018-01-27T18:18:27.883Z,79.50
2018-01-27T18:19:26.910Z,79.31
2018-01-27T18:21:23.359Z,79.41
2018-01-27T18:22:23.360Z,79.46
2018-01-27T18:24:19.304Z,79.50
2018-01-27T18:25:18.783Z,79.31
2018-01-27T18:27:17.280Z,79.31
2018-01-27T18:28:14.739Z,79.60
2018-01-27T18:30:12.782Z,79.60
2018-01-27T18:31:12.840Z,79.79
2018-01-27T18:33:10.836Z,79.41
2018-01-27T18:34:10.825Z,79.69
2018-01-27T18:36:07.265Z,79.22
2018-01-27T18:37:06.773Z,79.60
2018-01-27T18:39:04.231Z,79.69
2018-01-27T18:40:03.268Z,79.88
2018-01-27T18:42:00.719Z,79.31
2018-01-27T18:43:00.714Z,79.74
2018-01-27T18:44:56.703Z,79.27
2018-01-27T18:45:56.642Z,79.46
2018-01-27T18:47:52.619Z,79.46
2018-01-27T18:48:53.114Z,79.31
2018-01-27T18:50:49.046Z,79.88
2018-01-27T18:51:48.529Z,79.55
2018-01-27T18:53:45.400Z,79.74
2018-01-27T18:54:44.506Z,79.94
2018-01-27T18:56:40.401Z,79.65
2018-01-27T18:57:40.403Z,79.46
2018-01-27T18:59:37.881Z,79.55
2018-01-27T19:00:36.334Z,79.17
2018-01-27T19:02:32.269Z,79.27
2018-01-27T19:03:32.267Z,79.46
2018-01-27T19:05:28.238Z,79.46
2018-01-27T19:06:28.214Z,79.36
2018-01-27T19:08:24.188Z,79.27
2018-01-27T19:09:24.161Z,79.36
2018-01-27T19:11:20.133Z,79.27
2018-01-27T19:12:20.094Z,79.46
2018-01-27T19:14:19.546Z,79.46
2018-01-27T19:15:19.056Z,78.99
2018-01-27T19:17:14.174Z,79.08
2018-01-27T19:18:14.187Z,79.46
2018-01-27T19:20:10.146Z,78.61
2018-01-27T19:21:10.261Z,78.74
2018-01-27T19:23:06.990Z,78.80
2018-01-27T19:24:06.070Z,78.80
2018-01-27T19:26:02.015Z,78.70
2018-01-27T19:27:02.001Z,78.80
2018-01-27T19:28:57.975Z,78.99
2018-01-27T19:29:58.440Z,78.80
2018-01-27T19:31:53.882Z,78.32
2018-01-27T19:32:53.842Z,78.42
2018-01-27T19:34:50.290Z,78.61
2018-01-27T19:35:49.753Z,78.80
2018-01-27T19:37:45.765Z,78.61
2018-01-27T19:38:45.771Z,78.99
2018-01-27T19:40:41.720Z,78.61
2018-01-27T19:41:41.742Z,78.61
2018-01-27T19:43:37.650Z,78.23
2018-01-27T19:44:37.621Z,78.42
2018-01-27T19:46:33.556Z,78.32
2018-01-27T19:47:34.078Z,78.32
2018-01-27T19:49:29.489Z,78.42
2018-01-27T19:50:29.474Z,78.23
2018-01-27T19:52:25.594Z,78.42
2018-01-27T19:53:26.050Z,78.42
2018-01-27T19:55:21.324Z,78.61
2018-01-27T19:56:21.322Z,78.32
2018-01-27T19:58:18.768Z,78.61
2018-01-27T19:59:17.766Z,78.32
2018-01-27T20:01:11.681Z,78.42
2018-01-27T20:02:11.703Z,78.32
2018-01-27T20:04:07.658Z,78.61
2018-01-27T20:05:07.621Z,77.84
2018-01-27T20:07:04.092Z,77.47
2018-01-27T20:08:03.582Z,77.47
2018-01-27T20:09:59.554Z,77.56
2018-01-27T20:10:59.502Z,77.84
2018-01-27T20:12:55.958Z,77.56
2018-01-27T20:13:55.452Z,77.47
2018-01-27T20:15:51.378Z,77.79
2018-01-27T20:16:51.377Z,77.60
2018-01-27T20:18:47.357Z,77.51
2018-01-27T20:19:47.347Z,77.66
2018-01-27T20:21:44.257Z,77.31
2018-01-27T20:22:44.247Z,77.41
2018-01-27T20:24:39.696Z,77.79
2018-01-27T20:25:39.215Z,77.98
2018-01-27T20:27:34.631Z,77.89
2018-01-27T20:28:34.646Z,77.41
2018-01-27T20:30:30.615Z,77.22
2018-01-27T20:31:30.630Z,76.75
2018-01-27T20:33:27.074Z,77.03
2018-01-27T20:34:27.066Z,76.93
2018-01-27T20:36:22.490Z,76.84
2018-01-27T20:37:23.036Z,77.41
2018-01-27T20:39:17.440Z,77.41
2018-01-27T20:40:17.439Z,77.41
2018-01-27T20:42:11.877Z,77.41
2018-01-27T20:43:11.352Z,77.51
2018-01-27T20:45:07.282Z,77.22
2018-01-27T20:46:07.263Z,76.84
2018-01-27T20:48:03.685Z,77.03
2018-01-27T20:49:03.728Z,76.75
2018-01-27T20:50:59.112Z,77.12
2018-01-27T20:51:59.658Z,76.93
2018-01-27T20:53:55.056Z,76.84
2018-01-27T20:54:55.036Z,77.03
2018-01-27T20:56:51.007Z,76.84
2018-01-27T20:57:50.958Z,76.84
2018-01-27T20:59:46.928Z,76.56
2018-01-27T21:00:47.408Z,76.93
2018-01-27T21:02:42.824Z,76.46
2018-01-27T21:03:41.824Z,76.46
2018-01-27T21:05:37.302Z,76.18
2018-01-27T21:06:38.261Z,76.18
2018-01-27T21:08:35.219Z,75.99
2018-01-27T21:09:35.218Z,75.99
2018-01-27T21:11:31.185Z,76.56
2018-01-27T21:12:31.178Z,75.89
2018-01-27T21:14:27.128Z,76.56
2018-01-27T21:15:27.107Z,76.75
2018-01-27T21:17:23.074Z,76.37
2018-01-27T21:18:23.067Z,76.08
2018-01-27T21:20:20.022Z,76.08
2018-01-27T21:21:19.035Z,76.08
2018-01-27T21:23:16.993Z,75.70
2018-01-27T21:24:16.946Z,76.37
2018-01-27T21:26:11.370Z,76.08
2018-01-27T21:27:11.386Z,76.08
2018-01-27T21:29:07.282Z,76.65
2018-01-27T21:30:07.280Z,76.46
2018-01-27T21:32:03.211Z,76.93
2018-01-27T21:33:03.200Z,76.75
2018-01-27T21:34:59.169Z,76.93
2018-01-27T21:35:59.657Z,77.03